Tiempo atmosférico en la estación meteorológica de Campos, Salines Llevant, Illes Balears (3 m.)



Fecha
DESCASC
Temp. máxima en grados centígrados (hora)
DESCASC
Temp. mínima en grados centígrados (hora)
DESCASC
Temp. media en grados centígrados
DESCASC
Racha de viento máxima en m/sg (hora)
DESCASC
Velocidad máxima media en intervalos de 10 minutos(hora)
DESCASC
Precipitaciones diarias en mm
DESCASC
Precipitaciones de 00:00 a 06:00 en mm
DESCASC
Precipitaciones de 06:00 a 12:00 en mm
DESCASC
Precipitaciones de 12:00 a 18:00 en mm
DESCASC
Precipitaciones de 18:00 a 24:00 en mm
DESCASC
19-01-2020 13.9 (02:20) 7.3 (00:00) 10.6 13.89 (17:10) 8.06 (17:10) 72.4 0 17 32.2 23.2
18-01-2020 16.4 (15:40) 1.8 (06:20) 9.1 4.17 (00:20) 2.5 (14:50) 0 0 0 0 0
17-01-2020 17.1 (13:40) 6 (00:10) 11.6 16.67 (14:40) 9.72 (14:00) 0 0 0 0 0
16-01-2020 17 (13:30) 1.8 (00:00) 9.4 4.72 (14:40) 2.78 (14:40) 0 0 0 0 0
15-01-2020 16.4 (14:30) 4.9 (00:00) 10.6 8.06 (14:50) 5.83 (14:50) 0 0 0 0 0
14-01-2020 15.7 (14:40) 8.8 (00:00) 12.3 8.33 (01:40) 5 (12:10) 0 0 0 0 0
13-01-2020 14.9 (15:10) -1.2 (-00:0) 6.8 7.78 (14:30) 5 (13:10) 0 0 0 0 0
12-01-2020 14.5 (15:00) 0.7 (00:00) 7.6 8.33 (11:40) 5.83 (11:10) 0 0 0 0 0
11-01-2020 13.4 (12:10) 5.3 (00:00) 9.3 13.06 (13:00) 8.61 (12:20) 0 0 0 0 0
10-01-2020 12.9 (12:30) 4.1 (00:00) 8.5 9.72 (23:20) 5.28 (23:20) 6 0 0 5.8 0.2
09-01-2020 15.8 (16:30) 1.4 (00:00) 8.6 4.72 (14:30) 3.33 (11:10) 0 0 0 0 0
08-01-2020 15.9 (14:40) 1.9 (00:00) 8.9 8.89 (12:40) 5.83 (12:40) 0 0 0 0 0
07-01-2020 16.7 (13:30) 4.4 (00:00) 10.6 5.56 (14:10) 4.17 (16:30) 0 0 0 0 0
06-01-2020 14.7 (13:30) 0.3 (00:00) 7.5 3.33 (15:10) 2.5 (15:10) 0 0 0 0 0
05-01-2020 17.6 (15:30) 0.2 (00:00) 8.9 5 (14:30) 3.33 (14:30) 0 0 0 0 0
04-01-2020 17.1 (14:40) 3.8 (00:00) 10.5 4.72 (13:30) 3.33 (16:20) 0 0 0 0 0
03-01-2020 15.1 (12:40) 9.6 (00:00) 12.4 4.72 (13:10) 2.78 (14:10) 0 0 0 0 0
02-01-2020 15.6 (15:30) 5.4 (00:00) 10.5 2.5 (15:10) 1.67 (15:10) 0 0 0 0 0
01-01-2020 15.1 (13:40) 2.1 (00:00) 8.6 2.5 (08:10) 1.94 (19:00) 0 0 0 0 0
31-12-2019 16.5 (13:30) 1.8 (00:00) 9.1 4.44 (13:40) 2.78 (14:00) 0 0 0 0 0
30-12-2019 17.1 (13:40) 2.5 (00:00) 9.8 -- (--) -- (--) 0 0 0 0 0
29-12-2019 14.8 (13:00) 3.4 (00:00) 9.1 2.78 (13:20) 2.22 (13:20) 0 0 0 0 0
28-12-2019 17.6 (14:30) 2.7 (00:00) 10.2 5.28 (14:40) 2.78 (16:10) 0 0 0 0 0
27-12-2019 16.9 (15:50) 4 (00:00) 10.4 9.44 (14:40) 6.67 (15:20) 0 0 0 0 0
26-12-2019 19.8 (13:40) 5.8 (00:00) 12.8 6.94 (16:50) 4.72 (14:40) 0.4 0.2 0.2 0 0
25-12-2019 18.3 (15:40) 3 (00:00) 10.6 4.72 (13:40) 3.33 (14:00) 0 0 0 0 0
24-12-2019 18.3 (13:30) 4.6 (00:00) 11.4 6.67 (15:10) 4.72 (15:20) 0 0 0 0 0
23-12-2019 17.7 (13:00) 7.8 (00:00) 12.8 21.94 (10:10) 13.89 (07:50) 0 0 0 0 0
22-12-2019 18.6 (00:50) 16.3 (00:00) 17.4 25.83 (06:20) 15.83 (05:20) 0 0 0 0 0

Gráficas

Temp. máximas Temp. mínimas Temp. medias Precipitaciones Rachas de viento máximas Velocidades máximas media en intervalos de 10 minutos

Datos horarios

Fecha y hora oficial Temperatura (ºC) Velocidad del viento (km/h) Dirección del viento Racha (km/h) Dirección de racha Precipitación (mm) Presión (hPa) Tendencia (hPa) Humedad (%)
2020-01-20 23:00:00 14 16 Este 28 Este 0 -- -- 90
2020-01-20 22:00:00 13.9 16 Este 31 Este 0 -- -- 88
2020-01-20 21:00:00 13.4 15 Este 28 Este 0 -- -- 91
2020-01-20 20:00:00 12.7 10 Este 18 Este 0 -- -- 90
2020-01-20 19:00:00 12.3 8 Este 13 Este 0 -- -- 92
2020-01-20 18:00:00 12.8 8 Este 13 Este 0 -- -- 91
2020-01-20 17:00:00 13.6 8 Sudeste 18 Sudeste 0 -- -- 88
2020-01-20 16:00:00 14.7 13 Sudeste 21 Sudeste 0 -- -- 82
2020-01-20 15:00:00 13.8 10 Este 16 Este 0.8 -- -- 94
2020-01-20 14:00:00 13.4 9 Este 35 Este 2.8 -- -- 93
2020-01-20 13:00:00 14.4 22 Este 35 Este 0.2 -- -- 86
2020-01-20 12:00:00 13.6 8 Nordeste 17 Nordeste 0 -- -- 89
2020-01-20 11:00:00 11.5 11 Nordeste 24 Nordeste 0 -- -- 94
2020-01-20 10:00:00 10.5 17 Norte 23 Norte 0 -- -- 97
2020-01-20 09:00:00 10.5 4 Nordeste 11 Nordeste 0.4 -- -- 99
2020-01-20 08:00:00 10.2 6 Norte 23 Nordeste 1.2 -- -- 98
2020-01-20 07:00:00 11 13 Norte 22 Nordeste 1 -- -- 97
2020-01-20 06:00:00 11.5 12 Este 29 Este 0.4 -- -- 95
2020-01-20 05:00:00 10.2 10 Este 39 Nordeste 0 -- -- 99
2020-01-20 04:00:00 10.4 24 Nordeste 49 Nordeste 0 -- -- 100
2020-01-20 03:00:00 10.5 23 Nordeste 50 Nordeste 3.8 -- -- 100
2020-01-20 02:00:00 10.6 19 Nordeste 39 Nordeste 3.8 -- -- 100
2020-01-20 01:00:00 9.8 20 Nordeste 44 Nordeste 7.6 -- -- 100
2020-01-20 00:00:00 10.5 18 Nordeste 45 Nordeste 4 -- -- 99
2020-01-19 23:00:00 10.8 20 Nordeste 42 Nordeste 3.2 -- -- 99
2020-01-19 22:00:00 10.1 24 Nordeste 43 Nordeste 2 -- -- 100
2020-01-19 21:00:00 9.7 22 Nordeste 45 Nordeste 4.2 -- -- 100
2020-01-19 20:00:00 10 17 Nordeste 33 Nordeste 3.2 -- -- 100
2020-01-19 19:00:00 10.3 13 Nordeste 25 Nordeste 6.6 -- -- 100
2020-01-19 18:00:00 10.7 9 Nordeste 50 Nordeste 10.4 -- -- 100
2020-01-19 17:00:00 10.9 25 Nordeste 36 Nordeste 5.2 -- -- 100
2020-01-19 16:00:00 11.3 18 Nordeste 32 Norte 2.6 -- -- 100
2020-01-19 15:00:00 11.5 15 Nordeste 24 Nordeste 4.2 -- -- 100
2020-01-19 14:00:00 11.6 13 Nordeste 28 Norte 5.4 -- -- 100
2020-01-19 13:00:00 11.5 15 Nordeste 25 Nordeste 4.4 -- -- 99
2020-01-19 12:00:00 12.2 10 Nordeste 26 Norte 1.8 -- -- 98
2020-01-19 11:00:00 12.4 12 Nordeste 20 Nordeste 7.2 -- -- 99
2020-01-19 10:00:00 11.9 6 Nordeste 13 Nordeste 7.8 -- -- 96
2020-01-19 09:00:00 12.6 7 Nordeste 14 Nordeste 0.2 -- -- 97
2020-01-19 08:00:00 10 0 Calma 4 Noroeste 0 -- -- 97
2020-01-19 07:00:00 10 0 Calma 9 Norte 0 -- -- 96
2020-01-19 06:00:00 10.6 0 Calma 7 Norte 0 -- -- 94
2020-01-19 05:00:00 12 2 Nordeste 15 Sur 0 -- -- 90
2020-01-19 04:00:00 13.5 6 Sudoeste 14 Sur 0 -- -- 90
2020-01-19 03:00:00 13.8 8 Sur 15 Sudoeste 0 -- -- 89
2020-01-19 02:00:00 13.8 11 Sudoeste 18 Sudoeste 0 -- -- 91
2020-01-19 01:00:00 8.7 0 Calma 4 Oeste 0 -- -- 97
2020-01-19 00:00:00 7.3 0 Calma 4 Norte 0 -- -- 96
2020-01-18 23:00:00 7 0 Calma 4 Norte 0 -- -- 95
2020-01-18 22:00:00 7.8 2 Norte 4 Norte 0 -- -- 95
2020-01-18 21:00:00 8.1 0 Calma 3 Oeste 0 -- -- 93
2020-01-18 20:00:00 9.6 4 Sudoeste 9 Sudoeste 0 -- -- 93
2020-01-18 19:00:00 11 5 Sur 13 Sudoeste 0 -- -- 86
2020-01-18 18:00:00 12.7 6 Sur 9 Sudoeste 0 -- -- 86
2020-01-18 17:00:00 14.9 5 Sudoeste 11 Sudoeste 0 -- -- 80
2020-01-18 16:00:00 16.3 8 Oeste 12 Oeste 0 -- -- 75
2020-01-18 15:00:00 16.1 8 Oeste 14 Sudoeste 0 -- -- 74
2020-01-18 14:00:00 15.1 7 Oeste 10 Oeste 0 -- -- 81
2020-01-18 13:00:00 13.9 0 Calma 6 Nordeste 0 -- -- 90
2020-01-18 12:00:00 11.9 4 Norte 5 Nordeste 0 -- -- 95
2020-01-18 11:00:00 9.3 4 Noroeste 8 Noroeste 0 -- -- 98
2020-01-18 10:00:00 6.3 0 Calma 3 Noroeste 0 -- -- 99
2020-01-18 09:00:00 4 0 Calma 2 Noroeste 0 -- -- 99
2020-01-18 08:00:00 1.9 0 Calma 4 Norte 0 -- -- 97
2020-01-18 07:00:00 2.2 0 Calma 3 Sudeste 0 -- -- 97
2020-01-18 06:00:00 1.9 0 Calma 2 Sudeste 0 -- -- 97
2020-01-18 05:00:00 2.5 0 Calma 2 Este 0 -- -- 96
2020-01-18 04:00:00 3 0 Calma 2 Nordeste 0 -- -- 96
2020-01-18 03:00:00 3.8 0 Calma 3 Sudeste 0 -- -- 94
2020-01-18 02:00:00 6 0 Calma 8 Noroeste 0 -- -- 94
2020-01-18 01:00:00 8.3 3 Norte 15 Este 0 -- -- 95
2020-01-18 00:00:00 6.2 3 Este 6 Sudeste 0 -- -- 95
2020-01-17 23:00:00 6.5 4 Sudeste 7 Sudeste 0 -- -- 95
2020-01-17 22:00:00 7.6 0 Calma 5 Este 0 -- -- 93
2020-01-17 21:00:00 8.6 2 Sudoeste 8 Oeste 0 -- -- 91
2020-01-17 20:00:00 10.7 2 Sudeste 12 Oeste 0 -- -- 83
2020-01-17 19:00:00 13.7 12 Oeste 24 Oeste 0 -- -- 83
2020-01-17 18:00:00 14.4 15 Oeste 24 Oeste 0 -- -- 82
2020-01-17 17:00:00 15.8 18 Oeste 34 Oeste 0 -- -- 76
2020-01-17 16:00:00 16.2 24 Oeste 41 Oeste 0 -- -- 74
2020-01-17 15:00:00 16.6 31 Oeste 60 Oeste 0 -- -- 68
2020-01-17 14:00:00 16.9 35 Oeste 48 Oeste 0 -- -- 64
2020-01-17 13:00:00 16.8 25 Oeste 34 Oeste 0 -- -- 75
2020-01-17 12:00:00 16.4 16 Sudoeste 31 Sudoeste 0 -- -- 83
2020-01-17 11:00:00 15.7 15 Sudoeste 28 Oeste 0 -- -- 86
2020-01-17 10:00:00 15 15 Sudoeste 27 Sudoeste 0 -- -- 86
2020-01-17 09:00:00 14.1 14 Sudoeste 27 Sudoeste 0 -- -- 86
2020-01-17 08:00:00 13.9 14 Sudoeste 24 Sudoeste 0 -- -- 87
2020-01-17 07:00:00 13.7 12 Sudoeste 22 Sudoeste 0 -- -- 86
2020-01-17 06:00:00 13.7 10 Sudoeste 22 Sudoeste 0 -- -- 86
2020-01-17 05:00:00 13.5 10 Sudoeste 23 Sudoeste 0 -- -- 89
2020-01-17 04:00:00 12.8 11 Sudoeste 18 Sur 0 -- -- 96
2020-01-17 03:00:00 6.6 0 Calma 11 Sudoeste 0 -- -- 97
2020-01-17 02:00:00 6.3 0 Calma 4 Norte 0 -- -- 97
2020-01-17 01:00:00 6.3 0 Calma 3 Norte 0 -- -- 96
2020-01-17 00:00:00 6.2 0 Calma 3 Norte 0 -- -- 96
2020-01-16 23:00:00 6.4 0 Calma 3 Norte 0 -- -- 96
2020-01-16 22:00:00 6.4 2 Sudeste 3 Sudeste 0 -- -- 95
2020-01-16 21:00:00 8.1 0 Calma 8 Sudeste 0 -- -- 94
2020-01-16 20:00:00 8.7 6 Sudeste 6 Sudeste 0 -- -- 92
2020-01-16 19:00:00 10.5 5 Sur 7 Sudoeste 0 -- -- 89
2020-01-16 18:00:00 14.1 4 Sudoeste 10 Sudoeste 0 -- -- 82
2020-01-16 17:00:00 16.1 5 Sudoeste 17 Sudoeste 0 -- -- 76
2020-01-16 16:00:00 16.7 10 Oeste 15 Oeste 0 -- -- 73
2020-01-16 15:00:00 16.5 8 Sudoeste 17 Oeste 0 -- -- 75
2020-01-16 14:00:00 16.6 9 Sudoeste 15 Sudoeste 0 -- -- 75
2020-01-16 13:00:00 16.5 9 Oeste 16 Oeste 0 -- -- 77
2020-01-16 12:00:00 13 3 Noroeste 5 Noroeste 0 -- -- 89
2020-01-16 11:00:00 9.3 0 Calma 4 Norte 0 -- -- 96
2020-01-16 10:00:00 6.1 0 Calma 2 Noroeste 0 -- -- 99
2020-01-16 09:00:00 2.9 0 Calma 2 Norte 0 -- -- 98
2020-01-16 08:00:00 1.8 0 Calma 2 Sudeste 0 -- -- 97
2020-01-16 07:00:00 2.2 0 Calma 3 Norte 0 -- -- 97
2020-01-16 06:00:00 2 0 Calma 4 Norte 0 -- -- 97
2020-01-16 05:00:00 1.9 0 Calma 3 Sudeste 0 -- -- 97
2020-01-16 04:00:00 2 0 Calma 2 Nordeste 0 -- -- 96
2020-01-16 03:00:00 2.4 0 Calma 4 Sudeste 0 -- -- 96
2020-01-16 02:00:00 2.9 0 Calma 2 Nordeste 0 -- -- 96
2020-01-16 01:00:00 3.4 0 Calma 2 Nordeste 0 -- -- 95
2020-01-16 00:00:00 5.3 0 Calma 4 Norte 0 -- -- 95
2020-01-15 23:00:00 5.1 0 Calma 3 Sudeste 0 -- -- 94
2020-01-15 22:00:00 6.3 2 Sudeste 4 Sudeste 0 -- -- 92
2020-01-15 21:00:00 8.5 0 Calma 6 Oeste 0 -- -- 91
2020-01-15 20:00:00 9 0 Calma 4 Sur 0 -- -- 88
2020-01-15 19:00:00 11.8 0 Calma 15 Oeste 0 -- -- 77
2020-01-15 18:00:00 13.1 9 Oeste 18 Oeste 0 -- -- 75
2020-01-15 17:00:00 14 13 Oeste 23 Oeste 0 -- -- 74
2020-01-15 16:00:00 14.8 16 Oeste 28 Oeste 0 -- -- 72
2020-01-15 15:00:00 15.6 19 Oeste 29 Sudoeste 0 -- -- 70
2020-01-15 14:00:00 15.6 14 Oeste 23 Oeste 0 -- -- 66
2020-01-15 13:00:00 15.7 14 Oeste 22 Oeste 0 -- -- 74
2020-01-15 12:00:00 15.5 15 Oeste 24 Oeste 0 -- -- 71
2020-01-15 11:00:00 16 18 Oeste 24 Oeste 0 -- -- 72
2020-01-15 10:00:00 15 11 Sudoeste 21 Sur 0 -- -- 79
2020-01-15 09:00:00 14.6 11 Sudoeste 23 Sudoeste 0 -- -- 79
2020-01-15 08:00:00 13.7 11 Sur 22 Sur 0 -- -- 80
2020-01-15 07:00:00 13.5 11 Sur 21 Sur 0 -- -- 83
2020-01-15 06:00:00 12.8 8 Sur 19 Sur 0 -- -- 78
2020-01-15 05:00:00 13.1 12 Sur 19 Sur 0 -- -- 82
2020-01-15 04:00:00 12.6 10 Sur 21 Sudoeste 0 -- -- 80
2020-01-15 03:00:00 13.3 11 Sur 21 Sudoeste 0 -- -- 78
2020-01-15 02:00:00 13 10 Sur 19 Sur 0 -- -- 79
2020-01-15 01:00:00 12.4 10 Sur 18 Sur 0 -- -- 80
2020-01-15 00:00:00 11.9 10 Sur 15 Sudoeste 0 -- -- 80
2020-01-14 23:00:00 12.7 9 Sur 15 Sudoeste 0 -- -- 77
2020-01-14 22:00:00 12.5 9 Sudoeste 19 Sudoeste 0 -- -- 75
2020-01-14 21:00:00 9 6 Sudeste 9 Sudeste 0 -- -- 87
2020-01-14 20:00:00 10.1 5 Sudeste 14 Sur 0 -- -- 77
2020-01-14 19:00:00 11.3 8 Sur 12 Sur 0 -- -- 76
2020-01-14 18:00:00 13.2 9 Sudoeste 17 Sudoeste 0 -- -- 69
2020-01-14 17:00:00 13.9 6 Sur 23 Sur 0 -- -- 72
2020-01-14 16:00:00 15.4 11 Sur 21 Sudoeste 0 -- -- 63
2020-01-14 15:00:00 14.7 12 Sur 28 Sudoeste 0 -- -- 67
2020-01-14 14:00:00 14.9 13 Sudoeste 28 Sudoeste 0 -- -- 67
2020-01-14 13:00:00 14.7 13 Sudoeste 28 Sudoeste 0 -- -- 70
2020-01-14 12:00:00 15.6 18 Sur 30 Sur 0 -- -- 65
2020-01-14 11:00:00 14.9 17 Sudoeste 28 Sudoeste 0 -- -- 68
2020-01-14 10:00:00 14.7 16 Sur 28 Sur 0 -- -- 67
2020-01-14 09:00:00 13.5 14 Sudoeste 23 Sudoeste 0 -- -- 71
2020-01-14 08:00:00 13.2 13 Sudoeste 29 Sudoeste 0 -- -- 71
2020-01-14 07:00:00 13 15 Sudoeste 28 Sudoeste 0 -- -- 71
2020-01-14 06:00:00 12.8 12 Sudoeste 24 Sudoeste 0 -- -- 71
2020-01-14 05:00:00 12.8 14 Sudoeste 22 Sudoeste 0 -- -- 72
2020-01-14 04:00:00 12.7 12 Sudoeste 24 Sudoeste 0 -- -- 72
2020-01-14 03:00:00 12.8 13 Sudoeste 27 Sudoeste 0 -- -- 71
2020-01-14 02:00:00 13 13 Sudoeste 30 Sudoeste 0 -- -- 72
2020-01-14 01:00:00 12.9 13 Sudoeste 24 Sudoeste 0 -- -- 73
2020-01-14 00:00:00 13.1 14 Sudoeste 27 Sudoeste 0 -- -- 73
2020-01-13 23:00:00 13 15 Sudoeste 26 Sudoeste 0 -- -- 73
2020-01-13 22:00:00 12.6 12 Sudoeste 20 Sudoeste 0 -- -- 75
2020-01-13 21:00:00 12.6 10 Sudoeste 18 Sur 0 -- -- 76
2020-01-13 20:00:00 12.4 9 Sudoeste 17 Sudoeste 0 -- -- 77
2020-01-13 19:00:00 12.3 8 Sudoeste 17 Sudoeste 0 -- -- 74
2020-01-13 18:00:00 12.7 9 Sudoeste 18 Sudoeste 0 -- -- 74
2020-01-13 17:00:00 13.7 11 Sudoeste 19 Sudoeste 0 -- -- 72
2020-01-13 16:00:00 14.3 15 Sudoeste 23 Oeste 0 -- -- 69
2020-01-13 15:00:00 14.7 12 Sudoeste 28 Sudoeste 0 -- -- 68
2020-01-13 14:00:00 14.5 15 Sudoeste 27 Oeste 0 -- -- 70
2020-01-13 13:00:00 14.2 16 Oeste 25 Sudoeste 0 -- -- 71
2020-01-13 12:00:00 13.5 15 Oeste 23 Oeste 0 -- -- 79
2020-01-13 11:00:00 8.9 0 Calma 4 Noroeste 0 -- -- 100
2020-01-13 10:00:00 2.6 0 Calma 4 Norte 0 -- -- 99
2020-01-13 09:00:00 0 0 Calma 3 Norte 0 -- -- 99
2020-01-13 08:00:00 -1.2 0 Calma 2 Sur 0 -- -- 98
2020-01-13 07:00:00 -0.9 0 Calma 4 Sudeste 0 -- -- 98
2020-01-13 06:00:00 -0.8 2 Sudeste 3 Sudeste 0 -- -- 97
2020-01-13 05:00:00 -0.5 0 Calma 2 Norte 0 -- -- 97
2020-01-13 04:00:00 -0.3 0 Calma 4 Norte 0 -- -- 97
2020-01-13 03:00:00 -0.2 0 Calma 3 Sudeste 0 -- -- 96
2020-01-13 02:00:00 0.2 0 Calma 2 Sudeste 0 -- -- 96
2020-01-13 01:00:00 0.6 0 Calma 3 Norte 0 -- -- 95
2020-01-13 00:00:00 1.4 0 Calma 3 Sudeste 0 -- -- 95
2020-01-12 23:00:00 2.7 2 Norte 3 Norte 0 -- -- 93
2020-01-12 22:00:00 4.9 2 Este 10 Oeste 0 -- -- 92
2020-01-12 21:00:00 7.2 8 Nordeste 11 Nordeste 0 -- -- 93
2020-01-12 20:00:00 7.8 3 Norte 8 Nordeste 0 -- -- 85
2020-01-12 19:00:00 10 5 Nordeste 17 Nordeste 0 -- -- 80
2020-01-12 18:00:00 10.9 7 Nordeste 14 Nordeste 0 -- -- 78
2020-01-12 17:00:00 13.1 9 Nordeste 20 Norte 0 -- -- 71
2020-01-12 16:00:00 14.3 13 Nordeste 19 Norte 0 -- -- 67
2020-01-12 15:00:00 14.5 13 Norte 20 Norte 0 -- -- 67
2020-01-12 14:00:00 14.2 11 Nordeste 22 Nordeste 0 -- -- 65
2020-01-12 13:00:00 13.8 15 Norte 24 Norte 0 -- -- 68
2020-01-12 12:00:00 13.1 18 Norte 30 Norte 0 -- -- 68
2020-01-12 11:00:00 12 15 Norte 25 Norte 0 -- -- 74
2020-01-12 10:00:00 6.8 0 Calma 2 Norte 0 -- -- 96
2020-01-12 09:00:00 2.6 0 Calma 4 Noroeste 0 -- -- 98
2020-01-12 08:00:00 0.8 0 Calma 4 Oeste 0 -- -- 96
2020-01-12 07:00:00 1.3 0 Calma 3 Sudeste 0 -- -- 96
2020-01-12 06:00:00 2.3 0 Calma 4 Noroeste 0 -- -- 94
2020-01-12 05:00:00 4.1 3 Noroeste 5 Norte 0 -- -- 95
2020-01-12 04:00:00 4.8 0 Calma 8 Nordeste 0 -- -- 94
2020-01-12 03:00:00 5.1 5 Norte 10 Norte 0 -- -- 94
2020-01-12 02:00:00 6.1 6 Norte 8 Norte 0 -- -- 93
2020-01-12 01:00:00 6.8 4 Nordeste 6 Nordeste 0 -- -- 93
2020-01-12 00:00:00 6 2 Noroeste 8 Noroeste 0 -- -- 89
2020-01-11 23:00:00 7.9 5 Noroeste 8 Noroeste 0 -- -- 88
2020-01-11 22:00:00 6.7 0 Calma 4 Norte 0 -- -- 94
2020-01-11 21:00:00 5.3 0 Calma 5 Noroeste 0 -- -- 91
2020-01-11 20:00:00 6.5 0 Calma 12 Norte 0 -- -- 84
2020-01-11 19:00:00 8 7 Norte 10 Norte 0 -- -- 82
2020-01-11 18:00:00 10 7 Norte 21 Norte 0 -- -- 76
2020-01-11 17:00:00 12 15 Norte 43 Norte 0 -- -- 69
2020-01-11 16:00:00 12.9 27 Norte 40 Nordeste 0 -- -- 65
2020-01-11 15:00:00 13 28 Norte 42 Norte 0 -- -- 66
2020-01-11 14:00:00 13 26 Nordeste 46 Norte 0 -- -- 64
2020-01-11 13:00:00 12.8 30 Nordeste 47 Nordeste 0 -- -- 66
2020-01-11 12:00:00 13.1 25 Nordeste 38 Nordeste 0 -- -- 68
2020-01-11 11:00:00 13.2 15 Nordeste 24 Nordeste 0 -- -- 73
2020-01-11 10:00:00 11.8 11 Nordeste 21 Nordeste 0 -- -- 80
2020-01-11 09:00:00 8.7 3 Nordeste 6 Nordeste 0 -- -- 95
2020-01-11 08:00:00 8.1 2 Norte 8 Nordeste 0 -- -- 92
2020-01-11 07:00:00 8.1 6 Nordeste 8 Nordeste 0 -- -- 90
2020-01-11 06:00:00 10 7 Nordeste 18 Nordeste 0 -- -- 85
2020-01-11 05:00:00 10 9 Norte 15 Nordeste 0 -- -- 89
2020-01-11 04:00:00 10.6 12 Nordeste 16 Norte 0 -- -- 87
2020-01-11 03:00:00 10 8 Norte 32 Nordeste 0 -- -- 88
2020-01-11 02:00:00 11 16 Norte 25 Nordeste 0 -- -- 85
2020-01-11 01:00:00 10.9 11 Nordeste 21 Nordeste 0 -- -- 85
2020-01-11 00:00:00 11.4 13 Nordeste 35 Nordeste 0.2 -- -- 87
2020-01-10 23:00:00 11.1 10 Norte 25 Nordeste 0 -- -- 89
2020-01-10 22:00:00 9.3 5 Norte 14 Norte 0 -- -- 92
2020-01-10 21:00:00 10.5 9 Nordeste 17 Nordeste 0 -- -- 90
2020-01-10 20:00:00 11 10 Nordeste 17 Nordeste 0 -- -- 91
2020-01-10 19:00:00 11.2 8 Nordeste 18 Nordeste 0 -- -- 94
2020-01-10 18:00:00 11.4 12 Nordeste 27 Nordeste 0.4 -- -- 93
2020-01-10 17:00:00 12 9 Nordeste 21 Nordeste 0 -- -- 90
2020-01-10 16:00:00 12 6 Nordeste 14 Norte 0.6 -- -- 96
2020-01-10 15:00:00 11.8 8 Nordeste 18 Nordeste 1 -- -- 96
2020-01-10 14:00:00 12 7 Nordeste 14 Nordeste 2.4 -- -- 94
2020-01-10 13:00:00 12.4 5 Nordeste 10 Este 1.4 -- -- 90
2020-01-10 12:00:00 11.7 4 Norte 10 Noroeste 0 -- -- 93
2020-01-10 11:00:00 11.2 3 Sudeste 13 Nordeste 0 -- -- 94
2020-01-10 10:00:00 10.5 9 Nordeste 17 Nordeste 0 -- -- 94
2020-01-10 09:00:00 9.2 6 Nordeste 10 Nordeste 0 -- -- 98
2020-01-10 08:00:00 7.9 12 Norte 17 Noroeste 0 -- -- 98
2020-01-10 07:00:00 6.8 5 Sudeste 13 Noroeste 0 -- -- 99
2020-01-10 06:00:00 6.4 3 Noroeste 5 Noroeste 0 -- -- 98
2020-01-10 05:00:00 5.5 0 Calma 5 Noroeste 0 -- -- 98
2020-01-10 04:00:00 4.4 0 Calma 10 Noroeste 0 -- -- 98
2020-01-10 03:00:00 4.8 2 Norte 7 Noroeste 0 -- -- 96
2020-01-10 02:00:00 5.1 4 Norte 22 Noroeste 0 -- -- 97
2020-01-10 01:00:00 4.8 0 Calma 8 Sudeste 0 -- -- 95
2020-01-10 00:00:00 5.1 5 Sudeste 7 Sudeste 0 -- -- 95
2020-01-09 23:00:00 6.8 4 Noroeste 10 Noroeste 0 -- -- 97
2020-01-09 22:00:00 7.6 3 Noroeste 9 Noroeste 0 -- -- 95
2020-01-09 21:00:00 8.1 5 Norte 8 Sudeste 0 -- -- 94
2020-01-09 20:00:00 7.8 0 Calma 3 Sudeste 0 -- -- 92
2020-01-09 19:00:00 8.5 2 Norte 5 Sudeste 0 -- -- 91
2020-01-09 18:00:00 10.8 3 Sudeste 9 Sur 0 -- -- 82
2020-01-09 17:00:00 15 7 Sur 16 Sur 0 -- -- 72
2020-01-09 16:00:00 15.3 8 Sudeste 13 Sur 0 -- -- 73
2020-01-09 15:00:00 15.4 6 Sur 17 Sudeste 0 -- -- 74
2020-01-09 14:00:00 14.9 2 Este 15 Sudeste 0 -- -- 81
2020-01-09 13:00:00 15 6 Nordeste 14 Norte 0 -- -- 77
2020-01-09 12:00:00 14.4 8 Norte 14 Norte 0 -- -- 80
2020-01-09 11:00:00 12.2 11 Norte 15 Norte 0 -- -- 87
2020-01-09 10:00:00 9.3 8 Nordeste 12 Nordeste 0 -- -- 99
2020-01-09 09:00:00 4.8 3 Noroeste 8 Noroeste 0 -- -- 99
2020-01-09 08:00:00 2.3 0 Calma 4 Norte 0 -- -- 98
2020-01-09 07:00:00 2.5 0 Calma 6 Norte 0 -- -- 98
2020-01-09 06:00:00 1.7 3 Norte 4 Norte 0 -- -- 97
2020-01-09 05:00:00 2 0 Calma 4 Norte 0 -- -- 97
2020-01-09 04:00:00 3.5 0 Calma 6 Noroeste 0 -- -- 96
2020-01-09 03:00:00 3 0 Calma 6 Oeste 0 -- -- 96
2020-01-09 02:00:00 2.9 2 Norte 4 Noroeste 0 -- -- 96
2020-01-09 01:00:00 2.7 0 Calma 3 Noroeste 0 -- -- 96
2020-01-09 00:00:00 4.5 0 Calma 8 Noroeste 0 -- -- 96
2020-01-08 23:00:00 4.6 0 Calma 6 Norte 0 -- -- 95
2020-01-08 22:00:00 5.8 4 Norte 5 Norte 0 -- -- 95
2020-01-08 21:00:00 7 4 Norte 5 Norte 0 -- -- 91
2020-01-08 20:00:00 8.3 3 Norte 12 Norte 0 -- -- 87
2020-01-08 19:00:00 10.6 6 Nordeste 12 Nordeste 0 -- -- 88
2020-01-08 18:00:00 12.2 5 Nordeste 17 Norte 0 -- -- 82
2020-01-08 17:00:00 14.4 11 Norte 24 Norte 0 -- -- 77
2020-01-08 16:00:00 15.5 17 Norte 26 Norte 0 -- -- 71
2020-01-08 15:00:00 15.8 16 Norte 28 Nordeste 0 -- -- 72
2020-01-08 14:00:00 15.3 19 Norte 26 Norte 0 -- -- 72
2020-01-08 13:00:00 15.3 18 Norte 32 Nordeste 0 -- -- 71
2020-01-08 12:00:00 14.1 19 Norte 28 Nordeste 0 -- -- 76
2020-01-08 11:00:00 13.2 9 Norte 18 Norte 0 -- -- 86
2020-01-08 10:00:00 9.8 2 Este 5 Este 0 -- -- 99
2020-01-08 09:00:00 4.2 2 Nordeste 5 Norte 0 -- -- 99
2020-01-08 08:00:00 1.9 2 Sudeste 4 Sudeste 0 -- -- 97
2020-01-08 07:00:00 2 0 Calma 2 Sudeste 0 -- -- 97
2020-01-08 06:00:00 2.9 0 Calma 3 Oeste 0 -- -- 98
2020-01-08 05:00:00 3.9 0 Calma 2 Sudeste 0 -- -- 97
2020-01-08 04:00:00 4.6 3 Norte 4 Norte 0 -- -- 97
2020-01-08 03:00:00 4.9 0 Calma 3 Norte 0 -- -- 97
2020-01-08 02:00:00 5.1 0 Calma 5 Nordeste 0 -- -- 97
2020-01-08 01:00:00 4.2 2 Nordeste 4 Norte 0 -- -- 97
2020-01-08 00:00:00 4.7 0 Calma 4 Nordeste 0 -- -- 97
2020-01-07 23:00:00 4.7 0 Calma 4 Norte 0 -- -- 95
2020-01-07 22:00:00 5.2 0 Calma 3 Sudeste 0 -- -- 95
2020-01-07 21:00:00 6.3 0 Calma 5 Nordeste 0 -- -- 93
2020-01-07 20:00:00 8.2 3 Nordeste 5 Sudeste 0 -- -- 92
2020-01-07 19:00:00 9.1 3 Sudeste 8 Oeste 0 -- -- 85
2020-01-07 18:00:00 13.8 9 Oeste 17 Oeste 0 -- -- 79
2020-01-07 17:00:00 15.3 13 Oeste 20 Oeste 0 -- -- 72
2020-01-07 16:00:00 16.1 14 Oeste 20 Oeste 0 -- -- 70
2020-01-07 15:00:00 16.3 13 Oeste 20 Sudoeste 0 -- -- 67
2020-01-07 14:00:00 15.9 10 Sudoeste 16 Sudoeste 0 -- -- 68
2020-01-07 13:00:00 15.1 2 Nordeste 13 Nordeste 0 -- -- 73
2020-01-07 12:00:00 15.7 3 Norte 8 Norte 0 -- -- 71
2020-01-07 11:00:00 14 5 Noroeste 6 Noroeste 0 -- -- 81
2020-01-07 10:00:00 11.7 3 Norte 10 Norte 0 -- -- 90
2020-01-07 09:00:00 10 0 Calma 3 Nordeste 0 -- -- 96
2020-01-07 08:00:00 9.3 0 Calma 7 Norte 0 -- -- 96
2020-01-07 07:00:00 9 0 Calma 3 Sudeste 0 -- -- 95
2020-01-07 06:00:00 9.9 0 Calma 2 Noroeste 0 -- -- 95
2020-01-07 05:00:00 10.1 0 Calma 2 Nordeste 0 -- -- 94
2020-01-07 04:00:00 10.4 0 Calma 4 Norte 0 -- -- 93
2020-01-07 03:00:00 10.5 2 Norte 5 Noroeste 0 -- -- 93
2020-01-07 02:00:00 10.4 0 Calma 2 Este 0 -- -- 93
2020-01-07 01:00:00 10.6 0 Calma 4 Norte 0 -- -- 93
2020-01-07 00:00:00 10.6 2 Sudeste 4 Noroeste 0 -- -- 92
2020-01-06 23:00:00 10.7 0 Calma 5 Norte 0 -- -- 91
2020-01-06 22:00:00 10.9 0 Calma 4 Noroeste 0 -- -- 91
2020-01-06 21:00:00 11.1 0 Calma 2 Oeste 0 -- -- 90
2020-01-06 20:00:00 11.3 0 Calma 3 Sudeste 0 -- -- 89
2020-01-06 19:00:00 11.8 0 Calma 3 Sudeste 0 -- -- 87
2020-01-06 18:00:00 12.7 0 Calma 3 Sudeste 0 -- -- 82
2020-01-06 17:00:00 13.7 3 Sudeste 4 Sudeste 0 -- -- 76
2020-01-06 16:00:00 14.3 0 Calma 12 Oeste 0 -- -- 70
2020-01-06 15:00:00 14.4 7 Sudoeste 11 Oeste 0 -- -- 67
2020-01-06 14:00:00 14.6 4 Oeste 7 Oeste 0 -- -- 69
2020-01-06 13:00:00 14.6 3 Oeste 5 Noroeste 0 -- -- 71
2020-01-06 12:00:00 13.7 2 Noroeste 4 Noroeste 0 -- -- 77
2020-01-06 11:00:00 12.5 0 Calma 10 Noroeste 0 -- -- 83
2020-01-06 10:00:00 8.6 0 Calma 3 Noroeste 0 -- -- 97